sensor_id;sensor_type;location;lat;lon;timestamp;P1;durP1;ratioP1;P2;durP2;ratioP2
23222;SDS011;11780;13.904;100.620;2023-04-25T00:01:23;38.30;;;26.88;;
23222;SDS011;11780;13.904;100.620;2023-04-25T00:03:53;35.43;;;28.90;;
23222;SDS011;11780;13.904;100.620;2023-04-25T00:08:55;38.10;;;28.40;;
23222;SDS011;11780;13.904;100.620;2023-04-25T00:11:26;40.57;;;29.03;;
23222;SDS011;11780;13.904;100.620;2023-04-25T00:13:56;43.05;;;29.13;;
23222;SDS011;11780;13.904;100.620;2023-04-25T00:16:26;39.45;;;27.10;;
23222;SDS011;11780;13.904;100.620;2023-04-25T00:18:58;35.85;;;28.65;;
23222;SDS011;11780;13.904;100.620;2023-04-25T00:21:29;38.53;;;29.75;;
23222;SDS011;11780;13.904;100.620;2023-04-25T00:24:01;44.15;;;28.98;;
23222;SDS011;11780;13.904;100.620;2023-04-25T00:26:31;44.67;;;30.93;;
23222;SDS011;11780;13.904;100.620;2023-04-25T00:29:02;36.40;;;29.65;;
23222;SDS011;11780;13.904;100.620;2023-04-25T00:31:33;42.27;;;30.13;;
23222;SDS011;11780;13.904;100.620;2023-04-25T00:34:03;38.13;;;28.80;;
23222;SDS011;11780;13.904;100.620;2023-04-25T00:36:34;38.90;;;29.63;;
23222;SDS011;11780;13.904;100.620;2023-04-25T00:39:06;37.40;;;31.45;;
23222;SDS011;11780;13.904;100.620;2023-04-25T00:41:36;40.85;;;29.42;;
23222;SDS011;11780;13.904;100.620;2023-04-25T00:44:08;42.27;;;31.50;;
23222;SDS011;11780;13.904;100.620;2023-04-25T00:46:43;41.17;;;30.17;;
23222;SDS011;11780;13.904;100.620;2023-04-25T00:49:14;36.95;;;30.05;;
23222;SDS011;11780;13.904;100.620;2023-04-25T00:51:46;37.85;;;28.50;;
23222;SDS011;11780;13.904;100.620;2023-04-25T00:54:16;35.92;;;28.10;;
23222;SDS011;11780;13.904;100.620;2023-04-25T00:56:46;36.50;;;27.83;;
23222;SDS011;11780;13.904;100.620;2023-04-25T00:59:17;37.75;;;30.83;;
23222;SDS011;11780;13.904;100.620;2023-04-25T01:01:49;40.28;;;31.02;;
23222;SDS011;11780;13.904;100.620;2023-04-25T01:04:20;37.80;;;29.88;;
23222;SDS011;11780;13.904;100.620;2023-04-25T01:09:21;33.45;;;27.73;;
23222;SDS011;11780;13.904;100.620;2023-04-25T01:11:53;35.90;;;30.23;;
23222;SDS011;11780;13.904;100.620;2023-04-25T01:14:23;33.40;;;26.08;;
23222;SDS011;11780;13.904;100.620;2023-04-25T01:16:53;35.03;;;28.30;;
23222;SDS011;11780;13.904;100.620;2023-04-25T01:19:24;35.88;;;28.05;;
23222;SDS011;11780;13.904;100.620;2023-04-25T01:21:56;35.50;;;29.73;;
23222;SDS011;11780;13.904;100.620;2023-04-25T01:24:28;36.38;;;29.40;;
23222;SDS011;11780;13.904;100.620;2023-04-25T01:26:59;35.87;;;29.53;;
23222;SDS011;11780;13.904;100.620;2023-04-25T01:29:32;38.38;;;29.15;;
23222;SDS011;11780;13.904;100.620;2023-04-25T01:32:03;37.78;;;28.83;;
23222;SDS011;11780;13.904;100.620;2023-04-25T01:34:35;35.88;;;28.10;;
23222;SDS011;11780;13.904;100.620;2023-04-25T01:37:05;33.63;;;28.13;;
23222;SDS011;11780;13.904;100.620;2023-04-25T01:39:35;33.40;;;26.27;;
23222;SDS011;11780;13.904;100.620;2023-04-25T01:42:06;33.97;;;27.48;;
23222;SDS011;11780;13.904;100.620;2023-04-25T01:44:36;30.23;;;26.97;;
23222;SDS011;11780;13.904;100.620;2023-04-25T01:47:07;28.98;;;24.85;;
23222;SDS011;11780;13.904;100.620;2023-04-25T01:49:37;34.22;;;25.42;;
23222;SDS011;11780;13.904;100.620;2023-04-25T01:52:08;28.27;;;25.08;;
23222;SDS011;11780;13.904;100.620;2023-04-25T01:54:38;29.73;;;25.25;;
23222;SDS011;11780;13.904;100.620;2023-04-25T01:57:15;29.77;;;24.63;;
23222;SDS011;11780;13.904;100.620;2023-04-25T01:59:45;27.75;;;24.73;;
23222;SDS011;11780;13.904;100.620;2023-04-25T02:02:36;28.90;;;24.27;;
23222;SDS011;11780;13.904;100.620;2023-04-25T02:05:18;31.58;;;24.13;;
23222;SDS011;11780;13.904;100.620;2023-04-25T02:07:51;29.35;;;24.55;;
23222;SDS011;11780;13.904;100.620;2023-04-25T02:10:24;25.65;;;23.02;;
23222;SDS011;11780;13.904;100.620;2023-04-25T02:13:06;25.65;;;22.80;;
23222;SDS011;11780;13.904;100.620;2023-04-25T02:16:02;25.50;;;22.75;;
23222;SDS011;11780;13.904;100.620;2023-04-25T02:18:33;26.65;;;23.80;;
23222;SDS011;11780;13.904;100.620;2023-04-25T02:21:05;25.52;;;22.83;;
23222;SDS011;11780;13.904;100.620;2023-04-25T02:23:36;25.47;;;22.73;;
23222;SDS011;11780;13.904;100.620;2023-04-25T02:26:06;26.25;;;22.42;;
23222;SDS011;11780;13.904;100.620;2023-04-25T02:28:36;24.90;;;22.40;;
23222;SDS011;11780;13.904;100.620;2023-04-25T02:31:06;25.70;;;22.88;;
23222;SDS011;11780;13.904;100.620;2023-04-25T02:33:37;26.07;;;23.27;;
23222;SDS011;11780;13.904;100.620;2023-04-25T02:36:08;25.85;;;23.10;;
23222;SDS011;11780;13.904;100.620;2023-04-25T02:38:38;27.13;;;23.73;;
23222;SDS011;11780;13.904;100.620;2023-04-25T02:41:09;29.50;;;23.50;;
23222;SDS011;11780;13.904;100.620;2023-04-25T02:43:39;28.57;;;24.67;;
23222;SDS011;11780;13.904;100.620;2023-04-25T02:46:10;28.73;;;22.63;;
23222;SDS011;11780;13.904;100.620;2023-04-25T02:48:40;32.33;;;25.02;;
23222;SDS011;11780;13.904;100.620;2023-04-25T02:51:11;25.30;;;22.58;;
23222;SDS011;11780;13.904;100.620;2023-04-25T02:53:42;27.23;;;23.45;;
23222;SDS011;11780;13.904;100.620;2023-04-25T02:56:14;27.73;;;24.70;;
23222;SDS011;11780;13.904;100.620;2023-04-25T02:58:44;27.90;;;21.73;;
23222;SDS011;11780;13.904;100.620;2023-04-25T03:01:15;25.17;;;22.33;;
23222;SDS011;11780;13.904;100.620;2023-04-25T03:03:45;24.63;;;21.87;;
23222;SDS011;11780;13.904;100.620;2023-04-25T03:06:16;26.90;;;23.88;;
23222;SDS011;11780;13.904;100.620;2023-04-25T03:08:46;28.80;;;24.10;;
23222;SDS011;11780;13.904;100.620;2023-04-25T03:11:17;26.93;;;24.13;;
23222;SDS011;11780;13.904;100.620;2023-04-25T03:13:49;24.58;;;21.98;;
23222;SDS011;11780;13.904;100.620;2023-04-25T03:16:20;31.37;;;26.40;;
23222;SDS011;11780;13.904;100.620;2023-04-25T03:18:51;27.65;;;24.65;;
23222;SDS011;11780;13.904;100.620;2023-04-25T03:21:21;28.37;;;24.73;;
23222;SDS011;11780;13.904;100.620;2023-04-25T03:23:51;29.87;;;26.67;;
23222;SDS011;11780;13.904;100.620;2023-04-25T03:26:22;28.52;;;25.45;;
23222;SDS011;11780;13.904;100.620;2023-04-25T03:28:52;30.50;;;26.93;;
23222;SDS011;11780;13.904;100.620;2023-04-25T03:31:23;29.92;;;26.17;;
23222;SDS011;11780;13.904;100.620;2023-04-25T03:33:53;32.28;;;26.20;;
23222;SDS011;11780;13.904;100.620;2023-04-25T03:36:23;29.90;;;26.70;;
23222;SDS011;11780;13.904;100.620;2023-04-25T03:38:54;27.02;;;24.20;;
23222;SDS011;11780;13.904;100.620;2023-04-25T03:41:26;32.42;;;25.60;;
23222;SDS011;11780;13.904;100.620;2023-04-25T03:44:02;28.63;;;24.50;;
23222;SDS011;11780;13.904;100.620;2023-04-25T03:46:34;28.07;;;24.83;;
23222;SDS011;11780;13.904;100.620;2023-04-25T03:49:04;31.30;;;26.52;;
23222;SDS011;11780;13.904;100.620;2023-04-25T03:51:55;28.73;;;25.73;;
23222;SDS011;11780;13.904;100.620;2023-04-25T03:54:27;28.33;;;25.25;;
23222;SDS011;11780;13.904;100.620;2023-04-25T03:57:24;28.50;;;25.52;;
23222;SDS011;11780;13.904;100.620;2023-04-25T03:59:54;32.67;;;25.83;;
23222;SDS011;11780;13.904;100.620;2023-04-25T04:02:27;30.10;;;24.85;;
23222;SDS011;11780;13.904;100.620;2023-04-25T04:04:57;28.60;;;25.55;;
23222;SDS011;11780;13.904;100.620;2023-04-25T04:07:28;28.65;;;25.42;;
23222;SDS011;11780;13.904;100.620;2023-04-25T04:10:01;29.05;;;26.08;;
23222;SDS011;11780;13.904;100.620;2023-04-25T04:12:35;27.00;;;23.70;;
23222;SDS011;11780;13.904;100.620;2023-04-25T04:17:37;27.08;;;24.10;;
23222;SDS011;11780;13.904;100.620;2023-04-25T04:20:08;28.88;;;25.60;;
23222;SDS011;11780;13.904;100.620;2023-04-25T04:22:39;28.48;;;25.40;;
23222;SDS011;11780;13.904;100.620;2023-04-25T04:25:13;28.70;;;25.70;;
23222;SDS011;11780;13.904;100.620;2023-04-25T04:28:18;28.13;;;24.83;;
23222;SDS011;11780;13.904;100.620;2023-04-25T04:30:54;30.92;;;24.33;;
23222;SDS011;11780;13.904;100.620;2023-04-25T04:33:25;29.23;;;26.13;;
23222;SDS011;11780;13.904;100.620;2023-04-25T04:35:59;29.98;;;26.63;;
23222;SDS011;11780;13.904;100.620;2023-04-25T04:38:31;29.80;;;26.60;;
23222;SDS011;11780;13.904;100.620;2023-04-25T04:41:03;27.48;;;24.60;;
23222;SDS011;11780;13.904;100.620;2023-04-25T04:43:48;29.45;;;26.42;;
23222;SDS011;11780;13.904;100.620;2023-04-25T04:46:29;29.98;;;26.13;;
23222;SDS011;11780;13.904;100.620;2023-04-25T04:49:13;28.88;;;25.83;;
23222;SDS011;11780;13.904;100.620;2023-04-25T04:54:40;30.40;;;26.58;;
23222;SDS011;11780;13.904;100.620;2023-04-25T04:57:17;31.08;;;26.60;;
23222;SDS011;11780;13.904;100.620;2023-04-25T05:00:00;30.90;;;27.70;;
23222;SDS011;11780;13.904;100.620;2023-04-25T05:03:06;28.40;;;25.42;;
23222;SDS011;11780;13.904;100.620;2023-04-25T05:05:55;29.70;;;26.65;;
23222;SDS011;11780;13.904;100.620;2023-04-25T05:08:45;28.77;;;25.75;;
23222;SDS011;11780;13.904;100.620;2023-04-25T05:11:36;29.10;;;25.88;;
23222;SDS011;11780;13.904;100.620;2023-04-25T05:14:27;31.00;;;27.75;;
23222;SDS011;11780;13.904;100.620;2023-04-25T05:17:29;30.10;;;25.35;;
23222;SDS011;11780;13.904;100.620;2023-04-25T05:20:22;27.73;;;24.88;;
23222;SDS011;11780;13.904;100.620;2023-04-25T05:23:13;30.40;;;27.10;;
23222;SDS011;11780;13.904;100.620;2023-04-25T05:26:02;25.55;;;22.83;;
23222;SDS011;11780;13.904;100.620;2023-04-25T05:28:50;31.02;;;25.85;;
23222;SDS011;11780;13.904;100.620;2023-04-25T05:31:50;27.02;;;24.38;;
23222;SDS011;11780;13.904;100.620;2023-04-25T05:34:20;31.67;;;25.70;;
23222;SDS011;11780;13.904;100.620;2023-04-25T05:36:57;28.52;;;25.05;;
23222;SDS011;11780;13.904;100.620;2023-04-25T05:39:29;28.77;;;25.83;;
23222;SDS011;11780;13.904;100.620;2023-04-25T05:42:22;27.75;;;24.73;;
23222;SDS011;11780;13.904;100.620;2023-04-25T05:45:16;26.10;;;23.30;;
23222;SDS011;11780;13.904;100.620;2023-04-25T05:48:05;26.42;;;23.77;;
23222;SDS011;11780;13.904;100.620;2023-04-25T05:51:01;27.60;;;24.10;;
23222;SDS011;11780;13.904;100.620;2023-04-25T05:53:49;27.75;;;23.63;;
23222;SDS011;11780;13.904;100.620;2023-04-25T05:56:20;25.20;;;22.63;;
23222;SDS011;11780;13.904;100.620;2023-04-25T05:58:52;26.23;;;23.48;;
23222;SDS011;11780;13.904;100.620;2023-04-25T06:01:23;25.23;;;22.53;;
23222;SDS011;11780;13.904;100.620;2023-04-25T06:03:53;26.00;;;23.23;;
23222;SDS011;11780;13.904;100.620;2023-04-25T06:06:24;27.00;;;24.15;;
23222;SDS011;11780;13.904;100.620;2023-04-25T06:08:58;26.00;;;23.20;;
23222;SDS011;11780;13.904;100.620;2023-04-25T06:11:30;25.75;;;22.92;;
23222;SDS011;11780;13.904;100.620;2023-04-25T06:14:02;25.90;;;22.88;;
23222;SDS011;11780;13.904;100.620;2023-04-25T06:16:36;25.63;;;23.13;;
23222;SDS011;11780;13.904;100.620;2023-04-25T06:19:07;26.27;;;23.47;;
23222;SDS011;11780;13.904;100.620;2023-04-25T06:21:37;26.10;;;23.45;;
23222;SDS011;11780;13.904;100.620;2023-04-25T06:24:08;28.23;;;23.05;;
23222;SDS011;11780;13.904;100.620;2023-04-25T06:26:39;27.13;;;24.27;;
23222;SDS011;11780;13.904;100.620;2023-04-25T06:29:10;24.90;;;22.48;;
23222;SDS011;11780;13.904;100.620;2023-04-25T06:31:40;28.03;;;23.93;;
23222;SDS011;11780;13.904;100.620;2023-04-25T06:34:10;27.00;;;24.20;;
23222;SDS011;11780;13.904;100.620;2023-04-25T06:36:41;25.77;;;22.97;;
23222;SDS011;11780;13.904;100.620;2023-04-25T06:39:14;26.27;;;23.20;;
23222;SDS011;11780;13.904;100.620;2023-04-25T06:41:44;27.13;;;23.87;;
23222;SDS011;11780;13.904;100.620;2023-04-25T06:44:39;27.92;;;24.95;;
23222;SDS011;11780;13.904;100.620;2023-04-25T06:47:11;26.08;;;23.40;;
23222;SDS011;11780;13.904;100.620;2023-04-25T06:49:42;27.85;;;25.00;;
23222;SDS011;11780;13.904;100.620;2023-04-25T06:52:13;27.45;;;24.55;;
23222;SDS011;11780;13.904;100.620;2023-04-25T06:54:44;26.27;;;23.48;;
23222;SDS011;11780;13.904;100.620;2023-04-25T06:57:41;27.20;;;24.50;;
23222;SDS011;11780;13.904;100.620;2023-04-25T07:00:29;25.88;;;23.27;;
23222;SDS011;11780;13.904;100.620;2023-04-25T07:03:01;26.33;;;23.48;;
23222;SDS011;11780;13.904;100.620;2023-04-25T07:05:32;25.83;;;22.95;;
23222;SDS011;11780;13.904;100.620;2023-04-25T07:08:02;25.60;;;23.00;;
23222;SDS011;11780;13.904;100.620;2023-04-25T07:10:33;27.97;;;23.70;;
23222;SDS011;11780;13.904;100.620;2023-04-25T07:13:04;27.23;;;23.30;;
23222;SDS011;11780;13.904;100.620;2023-04-25T07:18:06;26.30;;;23.60;;
23222;SDS011;11780;13.904;100.620;2023-04-25T07:20:36;27.03;;;24.27;;
23222;SDS011;11780;13.904;100.620;2023-04-25T07:23:06;27.65;;;24.67;;
23222;SDS011;11780;13.904;100.620;2023-04-25T07:25:36;27.37;;;24.23;;
23222;SDS011;11780;13.904;100.620;2023-04-25T07:30:38;27.95;;;25.05;;
23222;SDS011;11780;13.904;100.620;2023-04-25T07:33:08;30.77;;;27.63;;
23222;SDS011;11780;13.904;100.620;2023-04-25T07:38:12;32.75;;;29.33;;
23222;SDS011;11780;13.904;100.620;2023-04-25T07:40:43;34.15;;;29.52;;
23222;SDS011;11780;13.904;100.620;2023-04-25T07:43:13;33.53;;;29.93;;
23222;SDS011;11780;13.904;100.620;2023-04-25T07:45:53;31.25;;;28.08;;
23222;SDS011;11780;13.904;100.620;2023-04-25T07:48:26;34.10;;;30.40;;
23222;SDS011;11780;13.904;100.620;2023-04-25T07:50:57;35.17;;;29.70;;
23222;SDS011;11780;13.904;100.620;2023-04-25T07:53:28;34.28;;;30.60;;
23222;SDS011;11780;13.904;100.620;2023-04-25T07:56:04;33.53;;;29.77;;
23222;SDS011;11780;13.904;100.620;2023-04-25T07:58:38;36.25;;;30.10;;
23222;SDS011;11780;13.904;100.620;2023-04-25T08:01:10;33.00;;;29.58;;
23222;SDS011;11780;13.904;100.620;2023-04-25T08:04:07;32.38;;;29.02;;
23222;SDS011;11780;13.904;100.620;2023-04-25T08:06:52;31.30;;;27.83;;
23222;SDS011;11780;13.904;100.620;2023-04-25T08:09:26;32.55;;;29.05;;
23222;SDS011;11780;13.904;100.620;2023-04-25T08:11:57;31.90;;;28.48;;
23222;SDS011;11780;13.904;100.620;2023-04-25T08:14:31;33.05;;;27.98;;
23222;SDS011;11780;13.904;100.620;2023-04-25T08:17:06;33.63;;;29.15;;
23222;SDS011;11780;13.904;100.620;2023-04-25T08:19:39;35.42;;;29.92;;
23222;SDS011;11780;13.904;100.620;2023-04-25T08:22:20;31.93;;;28.57;;
23222;SDS011;11780;13.904;100.620;2023-04-25T08:24:57;30.42;;;23.65;;
23222;SDS011;11780;13.904;100.620;2023-04-25T08:27:28;25.17;;;21.25;;
23222;SDS011;11780;13.904;100.620;2023-04-25T08:29:58;28.60;;;24.13;;
23222;SDS011;11780;13.904;100.620;2023-04-25T08:32:30;27.33;;;23.48;;
23222;SDS011;11780;13.904;100.620;2023-04-25T08:35:15;27.35;;;23.35;;
23222;SDS011;11780;13.904;100.620;2023-04-25T08:37:47;33.97;;;19.42;;
23222;SDS011;11780;13.904;100.620;2023-04-25T08:40:19;41.47;;;18.10;;
23222;SDS011;11780;13.904;100.620;2023-04-25T08:43:08;40.10;;;17.13;;
23222;SDS011;11780;13.904;100.620;2023-04-25T08:45:41;44.03;;;16.67;;
23222;SDS011;11780;13.904;100.620;2023-04-25T08:48:35;37.30;;;18.17;;
23222;SDS011;11780;13.904;100.620;2023-04-25T08:51:06;29.17;;;17.03;;
23222;SDS011;11780;13.904;100.620;2023-04-25T08:53:38;36.85;;;18.30;;
23222;SDS011;11780;13.904;100.620;2023-04-25T08:56:12;25.48;;;15.38;;
23222;SDS011;11780;13.904;100.620;2023-04-25T08:58:57;28.17;;;14.68;;
23222;SDS011;11780;13.904;100.620;2023-04-25T09:01:28;18.50;;;11.55;;
23222;SDS011;11780;13.904;100.620;2023-04-25T09:04:00;16.52;;;10.75;;
23222;SDS011;11780;13.904;100.620;2023-04-25T09:06:33;13.50;;;11.45;;
23222;SDS011;11780;13.904;100.620;2023-04-25T09:09:05;16.50;;;12.75;;
23222;SDS011;11780;13.904;100.620;2023-04-25T09:11:37;17.88;;;13.05;;
23222;SDS011;11780;13.904;100.620;2023-04-25T09:14:14;17.95;;;12.23;;
23222;SDS011;11780;13.904;100.620;2023-04-25T09:17:05;16.30;;;12.13;;
23222;SDS011;11780;13.904;100.620;2023-04-25T09:19:40;20.83;;;14.13;;
23222;SDS011;11780;13.904;100.620;2023-04-25T09:22:21;25.27;;;14.68;;
23222;SDS011;11780;13.904;100.620;2023-04-25T09:24:52;23.38;;;12.85;;
23222;SDS011;11780;13.904;100.620;2023-04-25T09:27:26;20.70;;;12.68;;
23222;SDS011;11780;13.904;100.620;2023-04-25T09:30:13;18.42;;;13.52;;
23222;SDS011;11780;13.904;100.620;2023-04-25T09:33:05;17.63;;;13.45;;
23222;SDS011;11780;13.904;100.620;2023-04-25T09:35:41;15.77;;;13.48;;
23222;SDS011;11780;13.904;100.620;2023-04-25T09:38:21;15.35;;;11.57;;
23222;SDS011;11780;13.904;100.620;2023-04-25T09:40:51;18.05;;;13.27;;
23222;SDS011;11780;13.904;100.620;2023-04-25T09:43:32;16.47;;;12.93;;
23222;SDS011;11780;13.904;100.620;2023-04-25T09:46:02;21.87;;;13.90;;
23222;SDS011;11780;13.904;100.620;2023-04-25T09:48:41;15.18;;;12.85;;
23222;SDS011;11780;13.904;100.620;2023-04-25T09:51:30;17.63;;;14.27;;
23222;SDS011;11780;13.904;100.620;2023-04-25T09:54:01;17.63;;;13.75;;
23222;SDS011;11780;13.904;100.620;2023-04-25T09:56:42;17.10;;;14.20;;
23222;SDS011;11780;13.904;100.620;2023-04-25T09:59:18;15.82;;;14.18;;
23222;SDS011;11780;13.904;100.620;2023-04-25T10:01:52;16.35;;;13.68;;
23222;SDS011;11780;13.904;100.620;2023-04-25T10:07:09;15.23;;;13.13;;
23222;SDS011;11780;13.904;100.620;2023-04-25T10:09:43;15.35;;;13.73;;
23222;SDS011;11780;13.904;100.620;2023-04-25T10:12:17;15.52;;;13.35;;
23222;SDS011;11780;13.904;100.620;2023-04-25T10:14:47;15.25;;;13.63;;
23222;SDS011;11780;13.904;100.620;2023-04-25T10:17:18;16.13;;;13.70;;
23222;SDS011;11780;13.904;100.620;2023-04-25T10:19:50;15.18;;;12.52;;
23222;SDS011;11780;13.904;100.620;2023-04-25T10:25:04;17.25;;;12.85;;
23222;SDS011;11780;13.904;100.620;2023-04-25T10:27:36;15.48;;;12.82;;
23222;SDS011;11780;13.904;100.620;2023-04-25T10:30:10;16.38;;;12.40;;
23222;SDS011;11780;13.904;100.620;2023-04-25T10:32:44;17.23;;;12.48;;
23222;SDS011;11780;13.904;100.620;2023-04-25T10:35:17;17.25;;;14.15;;
23222;SDS011;11780;13.904;100.620;2023-04-25T10:37:59;44.25;;;27.05;;
23222;SDS011;11780;13.904;100.620;2023-04-25T10:40:30;61.10;;;35.95;;
23222;SDS011;11780;13.904;100.620;2023-04-25T10:44:02;65.28;;;39.22;;
23222;SDS011;11780;13.904;100.620;2023-04-25T10:46:00;37.85;;;24.33;;
23222;SDS011;11780;13.904;100.620;2023-04-25T10:51:10;18.63;;;15.40;;
23222;SDS011;11780;13.904;100.620;2023-04-25T10:53:45;19.95;;;15.13;;
23222;SDS011;11780;13.904;100.620;2023-04-25T10:56:17;23.02;;;16.13;;
23222;SDS011;11780;13.904;100.620;2023-04-25T10:58:50;22.92;;;17.50;;
23222;SDS011;11780;13.904;100.620;2023-04-25T11:01:21;22.92;;;18.05;;
23222;SDS011;11780;13.904;100.620;2023-04-25T11:03:57;25.85;;;17.05;;
23222;SDS011;11780;13.904;100.620;2023-04-25T11:09:11;23.85;;;18.25;;
23222;SDS011;11780;13.904;100.620;2023-04-25T11:11:42;23.30;;;18.95;;
23222;SDS011;11780;13.904;100.620;2023-04-25T11:14:13;24.30;;;21.40;;
23222;SDS011;11780;13.904;100.620;2023-04-25T11:16:43;26.27;;;23.08;;
23222;SDS011;11780;13.904;100.620;2023-04-25T11:19:13;28.23;;;22.47;;
23222;SDS011;11780;13.904;100.620;2023-04-25T11:21:44;28.17;;;21.47;;
23222;SDS011;11780;13.904;100.620;2023-04-25T11:24:15;30.80;;;24.33;;
23222;SDS011;11780;13.904;100.620;2023-04-25T11:26:47;30.67;;;24.83;;
23222;SDS011;11780;13.904;100.620;2023-04-25T11:29:17;31.83;;;25.67;;
23222;SDS011;11780;13.904;100.620;2023-04-25T11:31:47;32.75;;;25.58;;
23222;SDS011;11780;13.904;100.620;2023-04-25T11:34:18;28.93;;;25.03;;
23222;SDS011;11780;13.904;100.620;2023-04-25T11:36:49;28.42;;;24.73;;
23222;SDS011;11780;13.904;100.620;2023-04-25T11:39:21;30.25;;;24.73;;
23222;SDS011;11780;13.904;100.620;2023-04-25T11:41:54;28.90;;;23.63;;
23222;SDS011;11780;13.904;100.620;2023-04-25T11:44:27;31.90;;;23.00;;
23222;SDS011;11780;13.904;100.620;2023-04-25T11:46:58;30.27;;;24.40;;
23222;SDS011;11780;13.904;100.620;2023-04-25T11:52:02;25.88;;;20.42;;
23222;SDS011;11780;13.904;100.620;2023-04-25T11:54:36;31.58;;;21.80;;
23222;SDS011;11780;13.904;100.620;2023-04-25T11:59:37;26.13;;;18.92;;
23222;SDS011;11780;13.904;100.620;2023-04-25T12:02:07;27.20;;;18.48;;
23222;SDS011;11780;13.904;100.620;2023-04-25T12:04:37;21.30;;;17.57;;
23222;SDS011;11780;13.904;100.620;2023-04-25T12:07:11;27.13;;;17.77;;
23222;SDS011;11780;13.904;100.620;2023-04-25T12:09:43;27.08;;;18.40;;
23222;SDS011;11780;13.904;100.620;2023-04-25T12:12:13;28.77;;;16.33;;
23222;SDS011;11780;13.904;100.620;2023-04-25T12:14:45;25.48;;;16.00;;
23222;SDS011;11780;13.904;100.620;2023-04-25T12:17:20;27.35;;;16.52;;
23222;SDS011;11780;13.904;100.620;2023-04-25T12:19:52;26.13;;;16.05;;
23222;SDS011;11780;13.904;100.620;2023-04-25T12:22:23;27.47;;;15.27;;
23222;SDS011;11780;13.904;100.620;2023-04-25T12:27:26;24.90;;;15.15;;
23222;SDS011;11780;13.904;100.620;2023-04-25T12:29:57;28.70;;;17.00;;
23222;SDS011;11780;13.904;100.620;2023-04-25T12:32:27;28.55;;;18.45;;
23222;SDS011;11780;13.904;100.620;2023-04-25T12:34:58;34.05;;;18.60;;
23222;SDS011;11780;13.904;100.620;2023-04-25T12:37:32;26.63;;;18.52;;
23222;SDS011;11780;13.904;100.620;2023-04-25T12:40:04;30.15;;;20.92;;
23222;SDS011;11780;13.904;100.620;2023-04-25T12:42:36;32.80;;;21.52;;
23222;SDS011;11780;13.904;100.620;2023-04-25T12:45:07;31.02;;;22.75;;
23222;SDS011;11780;13.904;100.620;2023-04-25T12:47:42;31.20;;;22.98;;
23222;SDS011;11780;13.904;100.620;2023-04-25T12:50:13;29.48;;;24.05;;
23222;SDS011;11780;13.904;100.620;2023-04-25T12:52:47;31.60;;;23.60;;
23222;SDS011;11780;13.904;100.620;2023-04-25T12:55:18;34.78;;;23.40;;
23222;SDS011;11780;13.904;100.620;2023-04-25T13:07:44;36.53;;;22.52;;
23222;SDS011;11780;13.904;100.620;2023-04-25T13:10:15;66.72;;;28.88;;
23222;SDS011;11780;13.904;100.620;2023-04-25T13:12:46;34.73;;;22.13;;
23222;SDS011;11780;13.904;100.620;2023-04-25T13:15:17;32.83;;;22.40;;
23222;SDS011;11780;13.904;100.620;2023-04-25T13:17:47;37.87;;;23.57;;
23222;SDS011;11780;13.904;100.620;2023-04-25T13:20:18;39.97;;;26.23;;
23222;SDS011;11780;13.904;100.620;2023-04-25T13:22:51;37.35;;;24.77;;
23222;SDS011;11780;13.904;100.620;2023-04-25T13:25:22;40.90;;;24.90;;
23222;SDS011;11780;13.904;100.620;2023-04-25T13:27:53;38.13;;;22.67;;
23222;SDS011;11780;13.904;100.620;2023-04-25T13:30:23;39.65;;;24.35;;
23222;SDS011;11780;13.904;100.620;2023-04-25T13:32:54;64.73;;;29.90;;
23222;SDS011;11780;13.904;100.620;2023-04-25T13:35:26;34.55;;;22.10;;
23222;SDS011;11780;13.904;100.620;2023-04-25T13:37:57;33.80;;;21.33;;
23222;SDS011;11780;13.904;100.620;2023-04-25T13:40:27;39.53;;;22.53;;
23222;SDS011;11780;13.904;100.620;2023-04-25T13:42:58;33.60;;;21.35;;
23222;SDS011;11780;13.904;100.620;2023-04-25T13:45:30;33.22;;;20.30;;
23222;SDS011;11780;13.904;100.620;2023-04-25T13:48:01;36.05;;;22.15;;
23222;SDS011;11780;13.904;100.620;2023-04-25T13:50:32;31.35;;;19.13;;
23222;SDS011;11780;13.904;100.620;2023-04-25T13:53:03;29.92;;;19.35;;
23222;SDS011;11780;13.904;100.620;2023-04-25T13:55:34;33.37;;;20.83;;
23222;SDS011;11780;13.904;100.620;2023-04-25T13:58:08;62.20;;;24.80;;
23222;SDS011;11780;13.904;100.620;2023-04-25T14:00:39;29.65;;;18.58;;
23222;SDS011;11780;13.904;100.620;2023-04-25T14:03:12;37.03;;;20.45;;
23222;SDS011;11780;13.904;100.620;2023-04-25T14:05:43;35.17;;;19.85;;
23222;SDS011;11780;13.904;100.620;2023-04-25T14:08:13;31.70;;;19.80;;
23222;SDS011;11780;13.904;100.620;2023-04-25T14:10:44;25.57;;;17.77;;
23222;SDS011;11780;13.904;100.620;2023-04-25T14:13:15;23.38;;;17.02;;
23222;SDS011;11780;13.904;100.620;2023-04-25T14:15:45;32.73;;;18.33;;
23222;SDS011;11780;13.904;100.620;2023-04-25T14:18:15;26.93;;;17.50;;
23222;SDS011;11780;13.904;100.620;2023-04-25T14:20:46;30.52;;;17.75;;
23222;SDS011;11780;13.904;100.620;2023-04-25T14:25:48;27.25;;;15.48;;
23222;SDS011;11780;13.904;100.620;2023-04-25T14:28:19;28.33;;;15.15;;
23222;SDS011;11780;13.904;100.620;2023-04-25T14:30:49;29.47;;;15.63;;
23222;SDS011;11780;13.904;100.620;2023-04-25T14:33:20;23.85;;;14.18;;
23222;SDS011;11780;13.904;100.620;2023-04-25T14:35:53;26.52;;;14.88;;
23222;SDS011;11780;13.904;100.620;2023-04-25T14:38:24;21.40;;;13.50;;
23222;SDS011;11780;13.904;100.620;2023-04-25T14:40:55;24.57;;;14.70;;
23222;SDS011;11780;13.904;100.620;2023-04-25T14:43:25;21.10;;;13.00;;
23222;SDS011;11780;13.904;100.620;2023-04-25T14:45:56;23.37;;;13.57;;
23222;SDS011;11780;13.904;100.620;2023-04-25T14:48:26;18.63;;;12.40;;
23222;SDS011;11780;13.904;100.620;2023-04-25T14:50:57;22.00;;;13.70;;
23222;SDS011;11780;13.904;100.620;2023-04-25T14:53:27;25.02;;;13.50;;
23222;SDS011;11780;13.904;100.620;2023-04-25T14:55:58;20.17;;;12.10;;
23222;SDS011;11780;13.904;100.620;2023-04-25T14:58:29;21.00;;;12.50;;
23222;SDS011;11780;13.904;100.620;2023-04-25T15:00:59;23.77;;;13.13;;
23222;SDS011;11780;13.904;100.620;2023-04-25T15:06:01;18.90;;;12.83;;
23222;SDS011;11780;13.904;100.620;2023-04-25T15:08:32;23.95;;;13.50;;
23222;SDS011;11780;13.904;100.620;2023-04-25T15:11:03;24.02;;;13.73;;
23222;SDS011;11780;13.904;100.620;2023-04-25T15:13:34;20.33;;;13.73;;
23222;SDS011;11780;13.904;100.620;2023-04-25T15:16:05;21.40;;;14.27;;
23222;SDS011;11780;13.904;100.620;2023-04-25T15:18:36;17.60;;;13.20;;
23222;SDS011;11780;13.904;100.620;2023-04-25T15:21:06;24.90;;;14.03;;
23222;SDS011;11780;13.904;100.620;2023-04-25T15:23:38;25.80;;;14.50;;
23222;SDS011;11780;13.904;100.620;2023-04-25T15:28:41;22.88;;;13.93;;